Hagerstown, MD

7:54 PM EST on February 10, 2016 (GMT -0500)
Marsh Road - MD/PA Border | | Change Station
CLOSE
Current Station
Personal Weather Station
Location: Hagerstown, MD
Elevation: 602 ft
Nearby Weather Stations

Elev 602 ft 39.72 °N, 77.67 °W | Updated 1 second ago

Overcast
Overcast
21.4 °F
Feels Like 21 °F
N
2.0
Wind Variable Wind from WNW
Gusts 4.9 mph

Today
High -- | Low -- °F
--% Chance of Precip.
Yesterday
High -- | Low -- °F
Precip. -- in
Pressure 29.93 in
Visibility 10.0 miles
Clouds Overcast 8000 ft
Windchill 21 °F
Dew Point 6 °F
Humidity 52%
Rainfall 0.00 in
Snow Depth Not available.
7:09 AM 5:40 PM
Waxing Crescent, 8% visible
METAR KHGR 102353Z AUTO 28013KT 10SM OVC080 M05/M12 A2987 RMK AO2 SLP133 T10501117 11006 21050 51026
Pressure 29.93 in
Visibility 10.0 miles
Clouds Overcast 8000 ft
Windchill 21 °F
Dew Point 6 °F
Humidity 52%
Rainfall 0.00 in
Snow Depth Not available.
7:09 AM 5:40 PM
Waxing Crescent, 8% visible
METAR KHGR 102353Z AUTO 28013KT 10SM OVC080 M05/M12 A2987 RMK AO2 SLP133 T10501117 11006 21050 51026

10-Day Weather Forecast

Almanac

Astronomy

Feb. 10, 2016 Rise Set
Actual Time
Civil Twilight
Nautical Twilight
Astronomical Twilight
Moon
Length of Visible Light
Length of Day
Tomorrow will be .
, % of the Moon is Illuminated

Today's Extremes

State Highs State Lows

Community

WunderPhotos

Upload Photos

1,891,948 photos uploaded!

WunderBlog® & News

Nearby

Air Quality

  Air Quality AQ Index Pollutant
Not available.

Snow Depth

Station Depth Elevation

Earthquake Activity

City Distance Mag. Time & Date
Minimum magnitude displayed is 2.5.

Coastal Water Temperatures

Place Temperature

Stations

Nearby Weather Stations

Station Location Temp. Windchill Dew Point Humidity Wind Precip. Elev Updated Type
                   

Watches & Warnings

There are currently no watches in effect.